Terminal Aerodrome Forecast
Issued by NWS Albuquerque, NM

Home | Current Version | Previous Version | Text Only | Print | Product List | Glossary On
Versions: 1 2 3 4 5 6 7 8 9 10 11 12 13 14 15 16 17 18 19 20 21
590
FTUS45 KABQ 230027 AAB
TAFABQ
TAF AMD
KABQ 230027Z 2300/2324 VRB04KT P6SM VCSH BKN060 OVC100
      TEMPO 2301/2303 6SM -SN BKN035
     FM230300 15005KT P6SM OVC060
     FM231200 18010KT P6SM BKN100
     FM232100 21018G28KT P6SM OVC100=

USA.gov is the U.S. government's official web portal to all federal, state and local government web resources and services.